createdAt,value
2019-04-27T00:00:07.507Z,13.68
2019-04-27T00:01:10.566Z,13.71
2019-04-27T00:02:07.497Z,13.73
2019-04-27T00:03:07.491Z,13.65
2019-04-27T00:04:07.468Z,13.62
2019-04-27T00:05:07.458Z,13.54
2019-04-27T00:06:08.590Z,13.59
2019-04-27T00:07:07.447Z,13.53
2019-04-27T00:08:07.419Z,13.51
2019-04-27T00:09:07.628Z,13.47
2019-04-27T00:10:07.405Z,13.47
2019-04-27T00:11:08.770Z,13.47
2019-04-27T00:12:07.389Z,13.53
2019-04-27T00:13:07.385Z,13.43
2019-04-27T00:14:10.406Z,13.48
2019-04-27T00:15:08.350Z,13.55
2019-04-27T00:16:09.893Z,13.53
2019-04-27T00:17:07.324Z,13.59
2019-04-27T00:18:09.322Z,13.54
2019-04-27T00:19:08.303Z,13.55
2019-04-27T00:20:07.299Z,13.62
2019-04-27T00:21:07.286Z,13.50
2019-04-27T00:22:07.275Z,13.48
2019-04-27T00:23:07.264Z,13.54
2019-04-27T00:24:07.268Z,13.43
2019-04-27T00:25:07.238Z,13.41
2019-04-27T00:26:07.227Z,13.53
2019-04-27T00:27:07.224Z,13.38
2019-04-27T00:28:07.207Z,13.44
2019-04-27T00:29:07.222Z,13.44
2019-04-27T00:30:07.192Z,13.54
2019-04-27T00:31:07.175Z,13.54
2019-04-27T00:32:07.172Z,13.43
2019-04-27T00:33:07.153Z,13.53
2019-04-27T00:34:07.144Z,13.39
2019-04-27T00:35:07.145Z,13.39
2019-04-27T00:36:07.125Z,13.35
2019-04-27T00:37:07.118Z,13.44
2019-04-27T00:38:07.105Z,13.44
2019-04-27T00:39:07.098Z,13.46
2019-04-27T00:40:07.092Z,13.41
2019-04-27T00:41:07.073Z,13.38
2019-04-27T00:42:07.067Z,13.36
2019-04-27T00:43:07.055Z,13.39
2019-04-27T00:44:07.036Z,13.46
2019-04-27T00:45:07.033Z,13.47
2019-04-27T00:46:07.023Z,13.51
2019-04-27T00:47:07.010Z,13.46
2019-04-27T00:48:06.999Z,13.43
2019-04-27T00:49:06.984Z,13.47
2019-04-27T00:50:06.973Z,13.44
2019-04-27T00:51:06.970Z,13.36
2019-04-27T00:52:06.950Z,13.39
2019-04-27T00:53:06.951Z,13.41
2019-04-27T00:54:06.936Z,13.48
2019-04-27T00:55:06.925Z,13.39
2019-04-27T00:56:06.921Z,13.46
2019-04-27T00:57:06.902Z,13.50
2019-04-27T00:58:06.887Z,13.53
2019-04-27T00:59:06.884Z,13.50
2019-04-27T01:00:06.876Z,13.59
2019-04-27T01:01:06.882Z,13.62
2019-04-27T01:02:06.847Z,13.51
2019-04-27T01:03:06.838Z,13.47
2019-04-27T01:04:06.824Z,13.46
2019-04-27T01:05:06.831Z,13.39
2019-04-27T01:06:06.806Z,13.41
2019-04-27T01:07:06.801Z,13.39
2019-04-27T01:08:06.780Z,13.43
2019-04-27T01:09:06.774Z,13.38
2019-04-27T01:10:06.765Z,13.38
2019-04-27T01:11:06.748Z,13.39
2019-04-27T01:12:06.747Z,13.47
2019-04-27T01:13:06.726Z,13.47
2019-04-27T01:14:06.716Z,13.50
2019-04-27T01:15:06.708Z,13.53
2019-04-27T01:16:08.524Z,13.47
2019-04-27T01:17:08.483Z,13.47
2019-04-27T01:18:13.267Z,13.54
2019-04-27T01:19:08.483Z,13.51
2019-04-27T01:20:06.652Z,13.59
2019-04-27T01:21:06.639Z,13.57
2019-04-27T01:22:06.646Z,13.51
2019-04-27T01:23:06.620Z,13.50
2019-04-27T01:24:06.614Z,13.48
2019-04-27T01:25:06.599Z,13.48
2019-04-27T01:26:06.592Z,13.44
2019-04-27T01:27:06.592Z,13.50
2019-04-27T01:28:06.572Z,13.31
2019-04-27T01:29:06.554Z,13.31
2019-04-27T01:30:06.553Z,13.31
2019-04-27T01:31:06.535Z,13.28
2019-04-27T01:32:06.540Z,13.28
2019-04-27T01:33:06.526Z,13.28
2019-04-27T01:34:06.506Z,13.36
2019-04-27T01:35:06.503Z,13.35
2019-04-27T01:36:06.485Z,13.41
2019-04-27T01:37:06.469Z,13.44
2019-04-27T01:38:06.459Z,13.44
2019-04-27T01:39:06.484Z,13.41
2019-04-27T01:40:06.442Z,13.44
2019-04-27T01:41:06.429Z,13.44
2019-04-27T01:42:06.418Z,13.39
2019-04-27T01:43:06.405Z,13.39
2019-04-27T01:44:06.394Z,13.39
2019-04-27T01:45:06.393Z,13.31
2019-04-27T01:46:06.389Z,13.24
2019-04-27T01:47:06.362Z,13.27
2019-04-27T01:48:06.351Z,13.22
2019-04-27T01:49:06.347Z,13.21
2019-04-27T01:50:06.358Z,13.24
2019-04-27T01:51:06.325Z,13.29
2019-04-27T01:52:06.308Z,13.25
2019-04-27T01:53:06.304Z,13.35
2019-04-27T01:54:06.286Z,13.39
2019-04-27T01:55:06.279Z,13.28
2019-04-27T01:56:06.280Z,13.29
2019-04-27T01:57:06.281Z,13.29
2019-04-27T01:58:06.249Z,13.29
2019-04-27T01:59:06.247Z,13.32
2019-04-27T02:00:06.226Z,13.38
2019-04-27T02:01:06.220Z,13.32
2019-04-27T02:02:06.206Z,13.28
2019-04-27T02:03:06.199Z,13.29
2019-04-27T02:04:06.190Z,13.19
2019-04-27T02:05:06.169Z,13.17
2019-04-27T02:06:06.172Z,13.24
2019-04-27T02:07:06.150Z,13.17
2019-04-27T02:08:06.137Z,13.25
2019-04-27T02:09:06.131Z,13.39
2019-04-27T02:10:06.120Z,13.31
2019-04-27T02:11:06.152Z,13.35
2019-04-27T02:12:06.096Z,13.39
2019-04-27T02:13:06.091Z,13.36
2019-04-27T02:14:06.072Z,13.31
2019-04-27T02:15:06.068Z,13.29
2019-04-27T02:16:06.058Z,13.19
2019-04-27T02:17:06.050Z,12.96
2019-04-27T02:18:06.030Z,12.87
2019-04-27T02:19:06.038Z,12.89
2019-04-27T02:20:06.008Z,12.94
2019-04-27T02:21:06.003Z,12.92
2019-04-27T02:22:05.996Z,12.89
2019-04-27T02:23:05.975Z,12.91
2019-04-27T02:24:05.974Z,12.88
2019-04-27T02:25:05.960Z,12.92
2019-04-27T02:26:05.949Z,12.92
2019-04-27T02:27:06.056Z,12.89
2019-04-27T02:28:05.922Z,12.76
2019-04-27T02:29:05.914Z,12.74
2019-04-27T02:30:05.909Z,12.73
2019-04-27T02:31:05.897Z,12.84
2019-04-27T02:32:05.885Z,12.74
2019-04-27T02:33:05.910Z,12.87
2019-04-27T02:34:05.864Z,12.80
2019-04-27T02:35:05.858Z,12.70
2019-04-27T02:36:05.844Z,12.73
2019-04-27T02:37:05.831Z,12.81
2019-04-27T02:38:05.817Z,12.89
2019-04-27T02:39:05.819Z,12.84
2019-04-27T02:40:05.810Z,12.85
2019-04-27T02:41:05.789Z,12.88
2019-04-27T02:42:05.791Z,12.87
2019-04-27T02:43:05.762Z,12.87
2019-04-27T02:44:05.788Z,12.80
2019-04-27T02:45:05.747Z,12.70
2019-04-27T02:46:05.730Z,12.70
2019-04-27T02:47:05.721Z,12.66
2019-04-27T02:48:05.708Z,12.69
2019-04-27T02:49:07.180Z,12.66
2019-04-27T02:50:05.697Z,12.73
2019-04-27T02:51:05.682Z,12.69
2019-04-27T02:52:05.669Z,12.76
2019-04-27T02:53:05.654Z,12.76
2019-04-27T02:54:05.654Z,12.79
2019-04-27T02:55:05.660Z,12.89
2019-04-27T02:56:05.621Z,12.81
2019-04-27T02:57:05.616Z,12.96
2019-04-27T02:58:05.609Z,12.85
2019-04-27T02:59:05.619Z,12.92
2019-04-27T03:00:05.577Z,12.91
2019-04-27T03:01:05.576Z,12.91
2019-04-27T03:02:05.560Z,12.91
2019-04-27T03:03:05.544Z,12.94
2019-04-27T03:04:05.533Z,13.06
2019-04-27T03:05:05.525Z,13.01
2019-04-27T03:06:05.526Z,13.03
2019-04-27T03:07:05.519Z,13.03
2019-04-27T03:08:05.501Z,12.91
2019-04-27T03:09:05.484Z,12.81
2019-04-27T03:10:05.477Z,12.73
2019-04-27T03:11:05.473Z,12.76
2019-04-27T03:12:05.456Z,12.79
2019-04-27T03:13:05.437Z,12.80
2019-04-27T03:14:05.432Z,12.91
2019-04-27T03:15:05.430Z,12.71
2019-04-27T03:16:05.405Z,12.73
2019-04-27T03:17:05.406Z,12.80
2019-04-27T03:18:05.381Z,12.79
2019-04-27T03:19:14.680Z,12.89
2019-04-27T03:20:06.373Z,12.87
2019-04-27T03:21:05.363Z,12.87
2019-04-27T03:22:05.338Z,12.79
2019-04-27T03:23:05.329Z,12.81
2019-04-27T03:24:05.317Z,12.77
2019-04-27T03:25:05.306Z,12.70
2019-04-27T03:26:05.308Z,12.71
2019-04-27T03:27:05.284Z,12.79
2019-04-27T03:28:05.280Z,12.74
2019-04-27T03:29:05.263Z,12.81
2019-04-27T03:30:05.257Z,12.79
2019-04-27T03:31:05.279Z,12.84
2019-04-27T03:32:05.270Z,12.70
2019-04-27T03:33:05.227Z,12.73
2019-04-27T03:34:05.970Z,12.70
2019-04-27T03:35:05.206Z,12.67
2019-04-27T03:36:05.210Z,12.73
2019-04-27T03:37:05.198Z,12.63
2019-04-27T03:38:05.168Z,12.62
2019-04-27T03:39:05.161Z,12.69
2019-04-27T03:40:05.154Z,12.70
2019-04-27T03:41:05.133Z,12.69
2019-04-27T03:42:05.169Z,12.76
2019-04-27T03:43:05.111Z,12.70
2019-04-27T03:44:05.106Z,12.73
2019-04-27T03:45:05.090Z,12.69
2019-04-27T03:46:05.079Z,12.67
2019-04-27T03:47:05.074Z,12.58
2019-04-27T03:48:05.072Z,12.59
2019-04-27T03:49:05.055Z,12.54
2019-04-27T03:50:05.043Z,12.38
2019-04-27T03:51:05.029Z,12.46
2019-04-27T03:52:05.025Z,12.40
2019-04-27T03:53:05.012Z,12.34
2019-04-27T03:54:05.013Z,12.26
2019-04-27T03:55:04.988Z,12.26
2019-04-27T03:56:04.975Z,12.29
2019-04-27T03:57:04.965Z,12.29
2019-04-27T03:58:04.949Z,12.38
2019-04-27T03:59:04.986Z,12.48
2019-04-27T04:00:04.985Z,12.44
2019-04-27T04:01:04.918Z,12.49
2019-04-27T04:02:04.910Z,12.52
2019-04-27T04:03:04.901Z,12.55
2019-04-27T04:04:04.888Z,12.59
2019-04-27T04:05:04.883Z,12.62
2019-04-27T04:06:04.863Z,12.69
2019-04-27T04:07:04.856Z,12.51
2019-04-27T04:08:04.845Z,12.48
2019-04-27T04:09:04.833Z,12.48
2019-04-27T04:10:04.835Z,12.52
2019-04-27T04:11:04.815Z,12.52
2019-04-27T04:12:04.803Z,12.51
2019-04-27T04:13:04.786Z,12.48
2019-04-27T04:14:04.784Z,12.48
2019-04-27T04:15:04.806Z,12.46
2019-04-27T04:16:07.660Z,12.49
2019-04-27T04:17:04.747Z,12.59
2019-04-27T04:18:04.735Z,12.56
2019-04-27T04:19:04.732Z,12.56
2019-04-27T04:20:04.716Z,12.58
2019-04-27T04:21:04.709Z,12.59
2019-04-27T04:22:04.692Z,12.51
2019-04-27T04:23:04.680Z,12.40
2019-04-27T04:24:04.681Z,12.37
2019-04-27T04:25:04.678Z,12.41
2019-04-27T04:26:11.708Z,12.34
2019-04-27T04:27:04.643Z,12.34
2019-04-27T04:28:04.625Z,12.41
2019-04-27T04:29:04.620Z,12.40
2019-04-27T04:30:04.612Z,12.51
2019-04-27T04:31:04.592Z,12.61
2019-04-27T04:32:04.601Z,12.70
2019-04-27T04:33:04.574Z,12.66
2019-04-27T04:34:04.563Z,12.70
2019-04-27T04:35:04.553Z,12.67
2019-04-27T04:36:04.539Z,12.77
2019-04-27T04:37:04.536Z,12.88
2019-04-27T04:38:04.521Z,12.77
2019-04-27T04:39:04.505Z,12.73
2019-04-27T04:40:04.501Z,12.84
2019-04-27T04:41:04.491Z,12.80
2019-04-27T04:42:04.477Z,12.80
2019-04-27T04:43:04.476Z,12.76
2019-04-27T04:44:04.454Z,12.77
2019-04-27T04:45:04.450Z,12.63
2019-04-27T04:46:04.992Z,12.79
2019-04-27T04:47:04.450Z,12.67
2019-04-27T04:48:04.442Z,12.62
2019-04-27T04:49:04.398Z,12.76
2019-04-27T04:50:11.276Z,12.81
2019-04-27T04:51:05.375Z,12.81
2019-04-27T04:52:04.376Z,12.74
2019-04-27T04:53:04.369Z,12.69
2019-04-27T04:54:04.385Z,12.74
2019-04-27T04:55:04.337Z,12.63
2019-04-27T04:56:04.331Z,12.66
2019-04-27T04:57:04.311Z,12.71
2019-04-27T04:58:04.304Z,12.70
2019-04-27T04:59:04.298Z,12.70
2019-04-27T05:00:04.293Z,12.74
2019-04-27T05:01:04.271Z,12.80
2019-04-27T05:02:04.261Z,12.79
2019-04-27T05:03:04.251Z,12.87
2019-04-27T05:04:04.271Z,13.01
2019-04-27T05:05:04.232Z,13.09
2019-04-27T05:06:04.214Z,13.21
2019-04-27T05:07:04.209Z,13.31
2019-04-27T05:08:04.211Z,13.27
2019-04-27T05:09:04.183Z,13.31
2019-04-27T05:10:04.187Z,13.21
2019-04-27T05:11:04.171Z,13.22
2019-04-27T05:12:04.152Z,13.29
2019-04-27T05:13:04.145Z,13.19
2019-04-27T05:14:04.131Z,13.22
2019-04-27T05:15:04.134Z,13.22
2019-04-27T05:16:04.112Z,13.29
2019-04-27T05:17:04.099Z,13.31
2019-04-27T05:18:04.083Z,13.31
2019-04-27T05:19:04.072Z,13.28
2019-04-27T05:20:04.078Z,13.28
2019-04-27T05:21:04.059Z,13.31
2019-04-27T05:22:04.050Z,13.29
2019-04-27T05:23:04.038Z,13.35
2019-04-27T05:24:04.033Z,13.29
2019-04-27T05:25:04.031Z,13.36
2019-04-27T05:26:04.003Z,13.29
2019-04-27T05:27:03.995Z,13.35
2019-04-27T05:28:03.991Z,13.38
2019-04-27T05:29:03.976Z,13.28
2019-04-27T05:30:03.959Z,13.35
2019-04-27T05:31:03.951Z,13.35
2019-04-27T05:32:03.938Z,13.31
2019-04-27T05:33:03.930Z,13.35
2019-04-27T05:34:06.710Z,13.38
2019-04-27T05:35:03.903Z,13.38
2019-04-27T05:36:03.933Z,13.41
2019-04-27T05:37:03.883Z,13.29
2019-04-27T05:38:07.464Z,13.35
2019-04-27T05:39:04.856Z,13.38
2019-04-27T05:40:03.852Z,13.36
2019-04-27T05:41:03.837Z,13.54
2019-04-27T05:42:16.927Z,13.62
2019-04-27T05:43:11.388Z,13.62
2019-04-27T05:44:13.035Z,13.65
2019-04-27T05:45:15.307Z,13.69
2019-04-27T05:47:13.576Z,13.75
2019-04-27T05:48:27.406Z,13.73
2019-04-27T05:50:35.501Z,13.72
2019-04-27T05:53:42.852Z,13.59
2019-04-27T05:54:50.574Z,13.61
2019-04-27T05:55:50.617Z,13.59
2019-04-27T05:56:42.856Z,13.61
2019-04-27T05:57:49.875Z,13.57
2019-04-27T05:58:51.228Z,13.50
2019-04-27T05:59:50.715Z,13.62
2019-04-27T06:00:42.761Z,13.66
2019-04-27T06:01:50.751Z,13.57
2019-04-27T06:02:42.744Z,13.68
2019-04-27T06:03:42.754Z,13.66
2019-04-27T06:04:50.271Z,13.62
2019-04-27T06:05:50.320Z,13.69
2019-04-27T06:06:42.722Z,13.79
2019-04-27T06:07:50.351Z,13.87
2019-04-27T06:08:49.752Z,13.99
2019-04-27T06:09:42.667Z,14.01
2019-04-27T06:10:42.657Z,14.09
2019-04-27T06:11:42.642Z,14.16
2019-04-27T06:12:42.637Z,14.23
2019-04-27T06:13:42.620Z,14.27
2019-04-27T06:14:42.654Z,14.29
2019-04-27T06:15:42.599Z,14.26
2019-04-27T06:16:42.586Z,14.23
2019-04-27T06:17:42.576Z,14.29
2019-04-27T06:18:42.564Z,14.34
2019-04-27T06:19:43.922Z,14.46
2019-04-27T06:20:51.207Z,14.53
2019-04-27T06:21:43.537Z,14.52
2019-04-27T06:22:42.527Z,14.36
2019-04-27T06:23:42.515Z,14.39
2019-04-27T06:24:42.529Z,14.34
2019-04-27T06:25:42.495Z,14.48
2019-04-27T06:26:42.493Z,14.60
2019-04-27T06:27:42.480Z,14.69
2019-04-27T06:28:42.458Z,14.71
2019-04-27T06:29:42.446Z,14.79
2019-04-27T06:30:42.451Z,14.72
2019-04-27T06:31:42.429Z,14.91
2019-04-27T06:32:42.422Z,14.93
2019-04-27T06:33:42.405Z,15.03
2019-04-27T06:34:42.401Z,14.98
2019-04-27T06:35:42.406Z,15.07
2019-04-27T06:36:42.367Z,15.13
2019-04-27T06:37:42.370Z,15.12
2019-04-27T06:38:42.344Z,15.09
2019-04-27T06:39:42.339Z,15.04
2019-04-27T06:40:42.329Z,15.07
2019-04-27T06:41:42.321Z,14.97
2019-04-27T06:42:42.323Z,15.01
2019-04-27T06:43:42.297Z,15.03
2019-04-27T06:44:42.280Z,14.91
2019-04-27T06:45:42.275Z,14.91
2019-04-27T06:46:42.265Z,14.79
2019-04-27T06:47:42.284Z,14.82
2019-04-27T06:48:42.241Z,14.74
2019-04-27T06:49:42.233Z,14.78
2019-04-27T06:50:42.214Z,14.79
2019-04-27T06:51:42.208Z,14.82
2019-04-27T06:52:42.193Z,14.72
2019-04-27T06:53:42.195Z,14.75
2019-04-27T06:54:42.182Z,14.80
2019-04-27T06:55:42.164Z,14.75
2019-04-27T06:56:42.149Z,14.78
2019-04-27T06:57:42.153Z,14.85
2019-04-27T06:58:42.138Z,14.87
2019-04-27T06:59:42.116Z,14.95
2019-04-27T07:00:42.112Z,14.91
2019-04-27T07:01:42.099Z,14.98
2019-04-27T07:02:42.083Z,14.90
2019-04-27T07:03:42.113Z,14.87
2019-04-27T07:04:42.067Z,14.86
2019-04-27T07:05:42.060Z,14.69
2019-04-27T07:06:53.210Z,14.59
2019-04-27T07:07:43.028Z,14.52
2019-04-27T07:08:42.017Z,14.49
2019-04-27T07:09:42.028Z,14.45
2019-04-27T07:10:42.008Z,14.56
2019-04-27T07:11:41.995Z,14.49
2019-04-27T07:12:41.991Z,14.59
2019-04-27T07:13:41.967Z,14.71
2019-04-27T07:14:52.919Z,14.69
2019-04-27T07:15:42.946Z,14.83
2019-04-27T07:16:41.930Z,14.91
2019-04-27T07:17:41.925Z,15.01
2019-04-27T07:18:41.922Z,15.15
2019-04-27T07:19:41.945Z,15.23
2019-04-27T07:20:41.895Z,15.33
2019-04-27T07:21:41.875Z,15.41
2019-04-27T07:22:41.869Z,15.44
2019-04-27T07:23:41.862Z,15.55
2019-04-27T07:24:41.856Z,15.68
2019-04-27T07:25:41.846Z,15.62
2019-04-27T07:26:41.827Z,15.62
2019-04-27T07:27:41.815Z,15.70
2019-04-27T07:28:41.810Z,15.46
2019-04-27T07:29:44.587Z,15.46
2019-04-27T07:30:41.802Z,15.44
2019-04-27T07:31:41.779Z,15.34
2019-04-27T07:32:41.759Z,15.34
2019-04-27T07:33:41.744Z,15.38
2019-04-27T07:34:41.735Z,15.33
2019-04-27T07:35:41.732Z,15.23
2019-04-27T07:36:41.729Z,15.18
2019-04-27T07:37:41.701Z,15.09
2019-04-27T07:38:41.691Z,14.97
2019-04-27T07:39:41.683Z,14.94
2019-04-27T07:40:42.078Z,14.98
2019-04-27T07:41:41.671Z,14.82
2019-04-27T07:42:41.646Z,14.74
2019-04-27T07:43:41.640Z,14.75
2019-04-27T07:44:41.627Z,14.82
2019-04-27T07:45:41.624Z,14.74
2019-04-27T07:46:41.632Z,14.71
2019-04-27T07:47:41.595Z,14.85
2019-04-27T07:48:41.584Z,14.83
2019-04-27T07:49:41.569Z,14.85
2019-04-27T07:50:41.563Z,14.82
2019-04-27T07:51:41.554Z,14.79
2019-04-27T07:52:41.561Z,14.72
2019-04-27T07:53:41.535Z,14.78
2019-04-27T07:54:41.517Z,14.80
2019-04-27T07:55:41.509Z,14.74
2019-04-27T07:56:41.498Z,14.83
2019-04-27T07:57:41.494Z,14.78
2019-04-27T07:58:41.475Z,14.63
2019-04-27T07:59:42.086Z,14.49
2019-04-27T08:00:41.459Z,14.41
2019-04-27T08:01:41.438Z,14.19
2019-04-27T08:02:41.453Z,14.08
2019-04-27T08:03:41.427Z,14.17
2019-04-27T08:04:41.404Z,14.17
2019-04-27T08:05:41.398Z,14.17
2019-04-27T08:06:41.388Z,14.13
2019-04-27T08:07:41.372Z,14.26
2019-04-27T08:08:41.383Z,14.20
2019-04-27T08:09:41.354Z,14.38
2019-04-27T08:10:41.343Z,14.49
2019-04-27T08:11:41.337Z,14.54
2019-04-27T08:12:41.336Z,14.53
2019-04-27T08:13:41.311Z,14.49
2019-04-27T08:14:41.304Z,14.63
2019-04-27T08:15:41.293Z,14.67
2019-04-27T08:16:41.280Z,14.83
2019-04-27T08:17:42.965Z,14.90
2019-04-27T08:18:41.255Z,15.05
2019-04-27T08:19:41.281Z,15.30
2019-04-27T08:20:41.227Z,15.31
2019-04-27T08:21:44.483Z,15.40
2019-04-27T08:22:42.206Z,15.58
2019-04-27T08:23:41.196Z,15.99
2019-04-27T08:24:41.184Z,16.37
2019-04-27T08:25:41.197Z,16.75
2019-04-27T08:26:41.163Z,17.00
2019-04-27T08:27:41.161Z,17.17
2019-04-27T08:28:41.142Z,17.45
2019-04-27T08:29:41.137Z,17.62
2019-04-27T08:30:41.135Z,17.77
2019-04-27T08:31:41.117Z,17.94
2019-04-27T08:32:41.565Z,17.80
2019-04-27T08:33:41.087Z,17.83
2019-04-27T08:34:41.075Z,17.96
2019-04-27T08:35:41.075Z,18.09
2019-04-27T08:36:41.180Z,18.38
2019-04-27T08:37:41.047Z,18.57
2019-04-27T08:38:41.031Z,18.56
2019-04-27T08:40:49.810Z,18.53
2019-04-27T08:41:49.779Z,18.36
2019-04-27T08:42:51.296Z,18.47
2019-04-27T08:43:49.758Z,18.38
2019-04-27T08:44:49.872Z,18.38
2019-04-27T08:45:49.740Z,18.10
2019-04-27T08:46:49.771Z,17.96
2019-04-27T08:47:50.071Z,17.95
2019-04-27T08:48:49.701Z,17.79
2019-04-27T08:49:49.690Z,17.70
2019-04-27T08:50:49.679Z,17.65
2019-04-27T08:51:57.233Z,17.65
2019-04-27T08:52:50.679Z,17.60
2019-04-27T08:53:50.100Z,17.63
2019-04-27T08:54:51.069Z,17.68
2019-04-27T08:55:52.645Z,17.68
2019-04-27T08:56:49.621Z,17.81
2019-04-27T08:57:49.624Z,17.80
2019-04-27T08:58:49.799Z,17.80
2019-04-27T08:59:51.115Z,17.76
2019-04-27T09:00:49.576Z,17.76
2019-04-27T09:01:49.562Z,17.80
2019-04-27T09:02:50.307Z,17.92
2019-04-27T09:03:49.654Z,17.94
2019-04-27T09:04:49.665Z,17.80
2019-04-27T09:05:49.538Z,17.79
2019-04-27T09:06:49.521Z,17.95
2019-04-27T09:07:49.772Z,17.83
2019-04-27T09:08:49.748Z,17.80
2019-04-27T09:09:49.853Z,17.84
2019-04-27T09:10:49.501Z,17.94
2019-04-27T09:11:49.524Z,18.04
2019-04-27T09:12:50.701Z,18.25
2019-04-27T09:13:49.445Z,18.36
2019-04-27T09:14:49.551Z,18.32
2019-04-27T09:15:49.543Z,18.32
2019-04-27T09:16:59.658Z,18.28
2019-04-27T09:17:50.390Z,18.16
2019-04-27T09:18:49.865Z,18.11
2019-04-27T09:19:49.382Z,17.98
2019-04-27T09:20:49.367Z,18.05
2019-04-27T09:21:49.365Z,18.04
2019-04-27T09:22:49.413Z,18.05
2019-04-27T09:23:49.331Z,18.16
2019-04-27T09:24:49.515Z,18.14
2019-04-27T09:25:49.695Z,18.05
2019-04-27T09:26:49.320Z,18.13
2019-04-27T09:27:49.435Z,17.95
2019-04-27T09:28:49.403Z,17.80
2019-04-27T09:29:49.950Z,17.62
2019-04-27T09:30:49.828Z,17.83
2019-04-27T09:31:49.245Z,17.83
2019-04-27T09:32:49.235Z,17.70
2019-04-27T09:33:49.222Z,17.80
2019-04-27T09:34:49.218Z,17.84
2019-04-27T09:35:49.213Z,17.96
2019-04-27T09:36:49.192Z,18.11
2019-04-27T09:37:49.182Z,18.23
2019-04-27T09:38:49.174Z,18.19
2019-04-27T09:39:49.154Z,18.31
2019-04-27T09:40:49.161Z,18.54
2019-04-27T09:41:49.138Z,18.53
2019-04-27T09:42:49.131Z,18.54
2019-04-27T09:43:49.122Z,18.56
2019-04-27T09:44:49.101Z,18.35
2019-04-27T09:45:49.126Z,18.26
2019-04-27T09:46:49.103Z,18.26
2019-04-27T09:47:49.087Z,18.34
2019-04-27T09:48:49.060Z,18.47
2019-04-27T09:49:49.056Z,18.35
2019-04-27T09:50:49.040Z,18.53
2019-04-27T09:51:49.040Z,18.75
2019-04-27T09:52:49.023Z,18.71
2019-04-27T09:53:49.012Z,18.78
2019-04-27T09:54:48.995Z,18.91
2019-04-27T09:55:48.996Z,19.02
2019-04-27T09:56:48.996Z,19.06
2019-04-27T09:57:48.967Z,18.90
2019-04-27T09:58:48.957Z,18.84
2019-04-27T09:59:48.944Z,18.87
2019-04-27T10:00:48.936Z,18.87
2019-04-27T10:01:48.920Z,18.84
2019-04-27T10:02:48.917Z,18.86
2019-04-27T10:03:48.900Z,18.79
2019-04-27T10:04:48.888Z,19.02
2019-04-27T10:05:48.884Z,19.16
2019-04-27T10:06:48.979Z,19.23
2019-04-27T10:07:48.869Z,19.38
2019-04-27T10:08:48.848Z,19.50
2019-04-27T10:09:48.854Z,19.61
2019-04-27T10:10:48.828Z,19.61
2019-04-27T10:11:48.818Z,19.79
2019-04-27T10:12:48.843Z,19.92
2019-04-27T10:13:48.791Z,20.02
2019-04-27T10:14:48.779Z,20.10
2019-04-27T10:15:48.770Z,20.19
2019-04-27T10:16:48.763Z,20.12
2019-04-27T10:17:48.765Z,20.20
2019-04-27T10:18:48.743Z,20.35
2019-04-27T10:19:48.734Z,20.35
2019-04-27T10:20:58.974Z,20.13
2019-04-27T10:21:49.708Z,20.23
2019-04-27T10:22:48.736Z,20.26
2019-04-27T10:23:48.691Z,20.34
2019-04-27T10:24:48.673Z,20.20
2019-04-27T10:25:48.666Z,20.15
2019-04-27T10:26:48.651Z,20.20
2019-04-27T10:27:48.648Z,20.44
2019-04-27T10:28:48.655Z,20.56
2019-04-27T10:29:48.634Z,20.78
2019-04-27T10:30:48.614Z,21.08
2019-04-27T10:31:48.604Z,21.15
2019-04-27T10:32:48.592Z,21.21
2019-04-27T10:33:48.577Z,21.13
2019-04-27T10:34:48.579Z,21.11
2019-04-27T10:35:48.557Z,21.09
2019-04-27T10:36:48.545Z,21.03
2019-04-27T10:37:48.537Z,20.91
2019-04-27T10:38:48.531Z,21.15
2019-04-27T10:39:48.530Z,21.09
2019-04-27T10:40:48.517Z,21.36
2019-04-27T10:41:48.540Z,21.26
2019-04-27T10:42:48.482Z,21.22
2019-04-27T10:43:48.724Z,21.22
2019-04-27T10:44:48.464Z,21.12
2019-04-27T10:45:48.450Z,20.75
2019-04-27T10:46:48.452Z,20.57
2019-04-27T10:47:49.600Z,20.58
2019-04-27T10:48:48.423Z,20.66
2019-04-27T10:49:48.578Z,20.93
2019-04-27T10:50:48.431Z,20.97
2019-04-27T10:51:48.401Z,21.16
2019-04-27T10:52:53.831Z,21.71
2019-04-27T10:53:49.476Z,22.09
2019-04-27T10:54:48.353Z,22.81
2019-04-27T10:55:48.352Z,23.47
2019-04-27T10:56:48.338Z,23.64
2019-04-27T10:57:48.340Z,23.79
2019-04-27T10:58:48.316Z,23.63
2019-04-27T10:59:48.307Z,23.53
2019-04-27T11:00:48.297Z,23.29
2019-04-27T11:01:48.281Z,23.12
2019-04-27T11:02:48.308Z,22.97
2019-04-27T11:03:48.266Z,23.07
2019-04-27T11:04:56.570Z,22.82
2019-04-27T11:05:48.239Z,22.69
2019-04-27T11:06:48.236Z,22.60
2019-04-27T11:07:48.221Z,22.39
2019-04-27T11:08:48.389Z,22.27
2019-04-27T11:09:48.205Z,22.19
2019-04-27T11:10:48.190Z,22.23
2019-04-27T11:11:48.210Z,22.19
2019-04-27T11:12:48.173Z,22.21
2019-04-27T11:13:48.156Z,22.30
2019-04-27T11:14:48.155Z,22.26
2019-04-27T11:15:48.134Z,22.20
2019-04-27T11:16:48.128Z,22.02
2019-04-27T11:17:48.172Z,22.04
2019-04-27T11:18:48.107Z,21.83
2019-04-27T11:19:48.101Z,22.04
2019-04-27T11:20:48.086Z,21.99
2019-04-27T11:21:48.074Z,22.06
2019-04-27T11:22:48.110Z,22.11
2019-04-27T11:23:48.053Z,22.17
2019-04-27T11:24:48.121Z,22.06
2019-04-27T11:25:48.033Z,22.17
2019-04-27T11:26:48.022Z,22.04
2019-04-27T11:27:48.010Z,21.98
2019-04-27T11:28:48.006Z,22.11
2019-04-27T11:29:47.991Z,22.12
2019-04-27T11:30:47.975Z,22.23
2019-04-27T11:31:47.967Z,22.81
2019-04-27T11:32:47.958Z,23.34
2019-04-27T11:33:47.950Z,23.62
2019-04-27T11:34:47.930Z,24.16
2019-04-27T11:35:47.922Z,24.53
2019-04-27T11:36:47.921Z,24.98
2019-04-27T11:37:47.898Z,24.77
2019-04-27T11:38:47.897Z,24.31
2019-04-27T11:39:47.885Z,23.96
2019-04-27T11:40:47.876Z,23.72
2019-04-27T11:41:47.864Z,23.47
2019-04-27T11:42:47.854Z,22.96
2019-04-27T11:43:47.839Z,22.72
2019-04-27T11:44:47.831Z,22.63
2019-04-27T11:45:47.829Z,22.61
2019-04-27T11:46:47.808Z,22.44
2019-04-27T11:47:47.797Z,22.48
2019-04-27T11:48:47.781Z,23.07
2019-04-27T11:49:47.776Z,23.37
2019-04-27T11:50:47.783Z,23.63
2019-04-27T11:51:47.757Z,23.96
2019-04-27T11:52:47.747Z,24.16
2019-04-27T11:53:47.745Z,24.05
2019-04-27T11:54:47.717Z,23.82
2019-04-27T11:55:47.713Z,23.67
2019-04-27T11:56:47.706Z,23.44
2019-04-27T11:57:47.702Z,23.50
2019-04-27T11:58:48.820Z,23.29
2019-04-27T11:59:47.666Z,23.41
2019-04-27T12:00:47.655Z,23.71
2019-04-27T12:01:47.650Z,23.77
2019-04-27T12:02:47.640Z,23.97
2019-04-27T12:03:47.652Z,24.11
2019-04-27T12:04:47.617Z,24.18
2019-04-27T12:05:47.609Z,24.63
2019-04-27T12:06:47.603Z,24.68
2019-04-27T12:07:47.965Z,25.49
2019-04-27T12:08:47.576Z,25.93
2019-04-27T12:09:48.099Z,25.63
2019-04-27T12:10:48.400Z,25.12
2019-04-27T12:11:47.543Z,24.75
2019-04-27T12:12:47.541Z,24.45
2019-04-27T12:13:47.525Z,24.27
2019-04-27T12:14:47.606Z,24.64
2019-04-27T12:15:47.505Z,25.27
2019-04-27T12:16:47.494Z,25.94
2019-04-27T12:17:47.482Z,25.63
2019-04-27T12:18:49.195Z,25.60
2019-04-27T12:19:47.458Z,25.17
2019-04-27T12:20:47.445Z,24.45
2019-04-27T12:21:47.449Z,24.06
2019-04-27T12:22:47.430Z,23.62
2019-04-27T12:23:47.420Z,23.29
2019-04-27T12:24:47.412Z,22.74
2019-04-27T12:25:47.399Z,22.64
2019-04-27T12:26:47.395Z,22.17
2019-04-27T12:27:47.378Z,21.31
2019-04-27T12:28:47.367Z,20.97
2019-04-27T12:29:47.405Z,20.91
2019-04-27T12:30:47.359Z,20.94
2019-04-27T12:31:49.125Z,20.93
2019-04-27T12:32:47.384Z,20.97
2019-04-27T12:34:56.545Z,20.69
2019-04-27T12:35:56.898Z,20.61
2019-04-27T12:36:56.061Z,20.50
2019-04-27T12:37:56.171Z,20.31
2019-04-27T12:38:56.649Z,19.89
2019-04-27T12:39:57.620Z,19.61
2019-04-27T12:40:56.542Z,19.60
2019-04-27T12:41:56.105Z,19.40
2019-04-27T12:42:56.003Z,19.34
2019-04-27T12:43:56.180Z,19.27
2019-04-27T12:44:55.974Z,19.31
2019-04-27T12:45:56.075Z,19.23
2019-04-27T12:46:57.737Z,19.21
2019-04-27T12:47:56.960Z,19.27
2019-04-27T12:48:57.263Z,19.27
2019-04-27T12:49:57.668Z,19.23
2019-04-27T12:50:56.421Z,19.30
2019-04-27T12:51:55.935Z,19.17
2019-04-27T12:52:55.899Z,19.01
2019-04-27T12:53:56.075Z,18.99
2019-04-27T12:54:55.871Z,19.01
2019-04-27T12:55:56.515Z,19.12
2019-04-27T12:56:55.982Z,19.05
2019-04-27T12:57:55.845Z,19.07
2019-04-27T12:58:56.467Z,18.93